createdAt,value
2022-12-03T00:00:39.157Z,-0.10
2022-12-03T00:04:40.483Z,0.00
2022-12-03T00:08:41.734Z,-0.10
2022-12-03T00:12:42.931Z,-0.10
2022-12-03T00:16:44.001Z,-0.20
2022-12-03T00:20:46.433Z,0.10
2022-12-03T00:24:47.500Z,-0.30
2022-12-03T00:28:48.902Z,0.00
2022-12-03T00:32:50.388Z,-0.10
2022-12-03T00:36:51.771Z,-0.30
2022-12-03T00:40:53.043Z,-0.10
2022-12-03T00:44:54.503Z,-0.10
2022-12-03T00:48:55.799Z,0.00
2022-12-03T00:52:56.867Z,-0.30
2022-12-03T00:56:58.231Z,-0.20
2022-12-03T01:00:59.369Z,-0.20
2022-12-03T01:05:01.151Z,-0.50
2022-12-03T01:09:02.812Z,-0.40
2022-12-03T01:13:03.930Z,-0.20
2022-12-03T01:17:06.157Z,-0.20
2022-12-03T01:21:07.432Z,-0.30
2022-12-03T01:25:09.790Z,-0.30
2022-12-03T01:29:11.048Z,-0.30
2022-12-03T01:33:12.252Z,-0.10
2022-12-03T01:37:14.185Z,-0.20
2022-12-03T01:41:17.736Z,-0.30
2022-12-03T01:45:22.255Z,-0.20
2022-12-03T01:49:29.864Z,-0.30
2022-12-03T01:53:30.958Z,0.00
2022-12-03T01:57:35.851Z,-0.20
2022-12-03T02:01:37.090Z,-0.10
2022-12-03T02:05:38.629Z,0.00
2022-12-03T02:09:39.948Z,0.10
2022-12-03T02:13:42.100Z,-0.10
2022-12-03T02:17:43.971Z,0.10
2022-12-03T02:21:52.116Z,0.30
2022-12-03T02:25:53.545Z,0.00
2022-12-03T02:29:55.380Z,0.00
2022-12-03T02:33:56.650Z,0.10
2022-12-03T02:38:13.864Z,0.10
2022-12-03T02:42:34.216Z,0.50
2022-12-03T02:46:35.731Z,0.10
2022-12-03T02:50:43.384Z,-0.20
2022-12-03T02:54:44.855Z,-0.10
2022-12-03T02:58:48.983Z,0.10
2022-12-03T03:02:50.431Z,0.00
2022-12-03T03:06:51.999Z,0.20
2022-12-03T03:10:54.282Z,-0.10
2022-12-03T03:14:55.904Z,-0.30
2022-12-03T03:18:57.213Z,-0.20
2022-12-03T03:23:13.113Z,0.20
2022-12-03T03:27:14.162Z,0.00
2022-12-03T03:31:18.610Z,-0.20
2022-12-03T03:35:20.200Z,0.00
2022-12-03T03:39:21.802Z,-0.40
2022-12-03T03:43:24.509Z,0.00
2022-12-03T03:47:26.085Z,-0.60
2022-12-03T03:51:27.305Z,0.10
2022-12-03T03:55:28.706Z,-0.60
2022-12-03T03:59:29.991Z,-0.20
2022-12-03T04:03:31.311Z,-0.40
2022-12-03T04:07:32.510Z,-0.10
2022-12-03T04:11:52.398Z,-0.10
2022-12-03T04:15:53.512Z,0.10
2022-12-03T04:19:54.812Z,-0.50
2022-12-03T04:23:56.007Z,-0.60
2022-12-03T04:28:15.721Z,-0.20
2022-12-03T04:32:35.358Z,-0.30
2022-12-03T04:36:36.554Z,-0.40
2022-12-03T04:40:56.757Z,0.00
2022-12-03T04:44:58.018Z,-0.10
2022-12-03T04:48:59.216Z,-0.10
2022-12-03T04:53:00.225Z,-0.50
2022-12-03T04:57:02.297Z,-0.60
2022-12-03T05:01:03.385Z,0.30
2022-12-03T05:05:05.285Z,0.30
2022-12-03T05:09:06.363Z,0.60
2022-12-03T05:13:07.617Z,-0.10
2022-12-03T05:17:08.704Z,0.50
2022-12-03T05:21:09.992Z,-0.20
2022-12-03T05:25:11.146Z,0.30
2022-12-03T05:29:12.335Z,-0.10
2022-12-03T05:33:13.694Z,-0.50
2022-12-03T05:37:14.834Z,-0.20
2022-12-03T05:41:34.456Z,-0.20
2022-12-03T05:45:38.712Z,-0.60
2022-12-03T05:49:40.045Z,-0.30
2022-12-03T05:53:41.273Z,0.10
2022-12-03T05:57:42.883Z,-0.20
2022-12-03T06:01:44.120Z,0.00
2022-12-03T06:05:45.305Z,-0.10
2022-12-03T06:09:46.508Z,0.50
2022-12-03T06:13:47.808Z,0.90
2022-12-03T06:17:49.592Z,0.90
2022-12-03T06:21:50.672Z,1.10
2022-12-03T06:25:52.076Z,1.10
2022-12-03T06:29:53.221Z,0.10
2022-12-03T06:33:54.732Z,0.70
2022-12-03T06:37:56.275Z,0.60
2022-12-03T06:41:57.716Z,0.40
2022-12-03T06:45:58.902Z,0.00
2022-12-03T06:50:00.152Z,0.40
2022-12-03T06:54:02.339Z,-0.20
2022-12-03T06:58:03.575Z,0.20
2022-12-03T07:02:05.182Z,0.20
2022-12-03T07:06:08.294Z,0.50
2022-12-03T07:10:10.252Z,-0.10
2022-12-03T07:14:11.668Z,0.10
2022-12-03T07:18:12.955Z,0.20
2022-12-03T07:22:14.126Z,-0.20
2022-12-03T07:26:15.263Z,0.10
2022-12-03T07:30:17.271Z,1.10
2022-12-03T07:34:18.569Z,-0.10
2022-12-03T07:38:19.644Z,0.90
2022-12-03T07:42:20.917Z,0.30
2022-12-03T07:46:22.144Z,0.30
2022-12-03T07:50:23.663Z,0.30
2022-12-03T07:54:25.500Z,0.20
2022-12-03T07:58:27.011Z,0.30
2022-12-03T08:02:28.353Z,0.20
2022-12-03T08:06:29.575Z,0.80
2022-12-03T08:10:30.770Z,0.70
2022-12-03T08:14:31.881Z,1.10
2022-12-03T08:18:33.174Z,0.80
2022-12-03T08:22:34.404Z,1.30
2022-12-03T08:26:35.691Z,0.60
2022-12-03T08:30:37.220Z,0.70
2022-12-03T08:34:41.383Z,1.50
2022-12-03T08:38:46.525Z,0.60
2022-12-03T08:42:47.951Z,1.90
2022-12-03T08:47:08.179Z,1.40
2022-12-03T08:51:26.702Z,1.40
2022-12-03T08:55:36.567Z,1.10
2022-12-03T08:59:40.304Z,1.10
2022-12-03T09:03:50.790Z,0.80
2022-12-03T09:07:52.260Z,0.60
2022-12-03T09:11:54.346Z,0.50
2022-12-03T09:15:55.404Z,0.90
2022-12-03T09:19:56.542Z,0.30
2022-12-03T09:23:57.707Z,0.50
2022-12-03T09:27:58.906Z,0.40
2022-12-03T09:32:00.172Z,0.30
2022-12-03T09:36:01.454Z,0.40
2022-12-03T09:40:03.259Z,0.00
2022-12-03T09:44:05.685Z,0.60
2022-12-03T09:48:07.411Z,0.70
2022-12-03T09:52:12.302Z,0.80
2022-12-03T09:56:17.370Z,1.20
2022-12-03T10:00:23.139Z,1.00
2022-12-03T10:04:24.639Z,0.30
2022-12-03T10:08:32.016Z,0.60
2022-12-03T10:12:31.210Z,0.70
2022-12-03T10:16:33.212Z,0.80
2022-12-03T10:20:34.697Z,0.60
2022-12-03T10:24:37.219Z,0.90
2022-12-03T10:28:41.843Z,0.20
2022-12-03T10:32:46.266Z,0.80
2022-12-03T10:36:49.374Z,0.30
2022-12-03T10:40:53.235Z,0.50
2022-12-03T10:45:17.289Z,0.90
2022-12-03T10:49:19.352Z,0.70
2022-12-03T10:53:30.183Z,0.60
2022-12-03T10:57:31.676Z,0.50
2022-12-03T11:01:33.249Z,0.90
2022-12-03T11:05:34.357Z,0.60
2022-12-03T11:09:35.810Z,1.20
2022-12-03T11:13:40.876Z,2.30
2022-12-03T11:17:50.927Z,0.60
2022-12-03T11:22:11.014Z,1.20
2022-12-03T11:26:30.468Z,1.20
2022-12-03T11:30:57.980Z,1.50
2022-12-03T11:34:59.315Z,1.30
2022-12-03T11:39:00.466Z,0.70
2022-12-03T11:43:01.735Z,0.30
2022-12-03T11:47:06.916Z,0.50
2022-12-03T11:51:16.807Z,0.30
2022-12-03T11:55:37.884Z,0.30
2022-12-03T11:59:42.776Z,0.20
2022-12-03T12:03:49.559Z,0.50
2022-12-03T12:07:52.112Z,0.90
2022-12-03T12:11:53.224Z,1.00
2022-12-03T12:15:55.023Z,0.90
2022-12-03T12:20:15.455Z,0.90
2022-12-03T12:24:32.829Z,1.90
2022-12-03T12:28:34.155Z,1.30
2022-12-03T12:32:51.502Z,0.70
2022-12-03T12:36:56.080Z,1.00
2022-12-03T12:40:57.316Z,0.20
2022-12-03T12:45:02.185Z,0.60
2022-12-03T12:49:14.462Z,0.60
2022-12-03T12:53:24.292Z,0.10
2022-12-03T12:57:25.341Z,0.30
2022-12-03T13:01:29.969Z,0.50
2022-12-03T13:05:43.671Z,0.60
2022-12-03T13:09:44.938Z,0.20
2022-12-03T13:13:46.284Z,0.30
2022-12-03T13:17:47.341Z,0.10
2022-12-03T13:21:49.800Z,0.50
2022-12-03T13:26:01.766Z,0.50
2022-12-03T13:29:58.379Z,0.40
2022-12-03T13:34:01.460Z,0.30
2022-12-03T13:38:13.162Z,0.30
2022-12-03T13:42:38.634Z,0.50
2022-12-03T13:46:39.855Z,0.20
2022-12-03T13:50:45.412Z,0.50
2022-12-03T13:54:49.530Z,0.20
2022-12-03T13:58:50.894Z,0.30
2022-12-03T14:02:52.133Z,0.30
2022-12-03T14:06:53.414Z,0.10
2022-12-03T14:11:00.227Z,0.20
2022-12-03T14:14:57.647Z,0.00
2022-12-03T14:18:58.724Z,0.40
2022-12-03T14:23:00.085Z,0.70
2022-12-03T14:27:01.520Z,0.50
2022-12-03T14:31:05.036Z,0.50
2022-12-03T14:35:10.087Z,0.60
2022-12-03T14:39:10.423Z,0.50
2022-12-03T14:43:11.577Z,0.40
2022-12-03T14:47:14.374Z,0.50
2022-12-03T14:51:15.720Z,0.30
2022-12-03T14:55:17.003Z,0.30
2022-12-03T14:59:20.718Z,0.40
2022-12-03T15:03:21.972Z,0.50
2022-12-03T15:07:23.400Z,0.30
2022-12-03T15:11:24.674Z,0.10
2022-12-03T15:15:26.109Z,0.30
2022-12-03T15:19:27.075Z,0.40
2022-12-03T15:23:28.044Z,0.70
2022-12-03T15:27:29.185Z,0.50
2022-12-03T15:31:30.251Z,0.20
2022-12-03T15:35:31.947Z,0.30
2022-12-03T15:39:34.894Z,0.70
2022-12-03T15:43:35.867Z,0.40
2022-12-03T15:47:36.977Z,0.70
2022-12-03T15:51:38.019Z,0.40
2022-12-03T15:55:39.051Z,0.80
2022-12-03T15:59:40.184Z,0.70
2022-12-03T16:03:41.325Z,0.30
2022-12-03T16:07:42.399Z,0.70
2022-12-03T16:11:43.456Z,0.60
2022-12-03T16:15:44.586Z,0.40
2022-12-03T16:19:46.024Z,0.50
2022-12-03T16:23:47.224Z,0.70
2022-12-03T16:27:48.339Z,0.50
2022-12-03T16:31:49.415Z,0.80
2022-12-03T16:35:50.455Z,0.70
2022-12-03T16:39:51.715Z,1.10
2022-12-03T16:43:52.999Z,0.80
2022-12-03T16:47:54.016Z,0.80
2022-12-03T16:51:55.047Z,0.50
2022-12-03T16:55:56.059Z,0.60
2022-12-03T16:59:57.106Z,0.40
2022-12-03T17:03:58.116Z,0.50
2022-12-03T17:07:59.230Z,0.40
2022-12-03T17:12:00.312Z,1.00
2022-12-03T17:16:01.319Z,0.30
2022-12-03T17:20:04.453Z,0.40
2022-12-03T17:24:05.983Z,0.40
2022-12-03T17:28:07.185Z,0.30
2022-12-03T17:32:08.309Z,0.10
2022-12-03T17:36:10.404Z,0.30
2022-12-03T17:40:13.398Z,0.50
2022-12-03T17:44:19.426Z,0.50
2022-12-03T17:48:17.248Z,0.30
2022-12-03T17:52:18.401Z,0.30
2022-12-03T17:56:19.577Z,0.60
2022-12-03T18:00:20.890Z,0.30
2022-12-03T18:04:21.965Z,0.10
2022-12-03T18:08:23.374Z,0.60
2022-12-03T18:12:24.836Z,0.50
2022-12-03T18:16:26.015Z,0.30
2022-12-03T18:20:27.410Z,0.40
2022-12-03T18:24:29.877Z,0.90
2022-12-03T18:28:31.216Z,0.60
2022-12-03T18:32:32.674Z,0.30
2022-12-03T18:36:35.695Z,0.50
2022-12-03T18:40:38.801Z,0.20
2022-12-03T18:44:42.736Z,0.20
2022-12-03T18:48:45.303Z,-0.10
2022-12-03T18:52:46.487Z,0.00
2022-12-03T18:56:47.558Z,0.00
2022-12-03T19:00:48.904Z,0.50
2022-12-03T19:04:49.964Z,0.40
2022-12-03T19:08:53.054Z,0.30
2022-12-03T19:12:54.030Z,0.40
2022-12-03T19:16:55.313Z,0.60
2022-12-03T19:20:56.486Z,0.60
2022-12-03T19:24:57.617Z,0.20
2022-12-03T19:28:59.122Z,0.30
2022-12-03T19:33:00.673Z,0.50
2022-12-03T19:37:01.708Z,0.30
2022-12-03T19:41:08.405Z,0.50
2022-12-03T19:45:10.480Z,0.50
2022-12-03T19:49:11.942Z,0.40
2022-12-03T19:53:12.985Z,0.60
2022-12-03T19:57:18.061Z,0.60
2022-12-03T20:01:19.639Z,0.60
2022-12-03T20:05:20.716Z,0.60
2022-12-03T20:09:22.051Z,0.50
2022-12-03T20:13:23.191Z,0.60
2022-12-03T20:17:24.201Z,0.30
2022-12-03T20:21:26.199Z,0.40
2022-12-03T20:25:27.232Z,0.40
2022-12-03T20:29:28.256Z,0.50
2022-12-03T20:33:29.942Z,0.60
2022-12-03T20:37:31.335Z,0.40
2022-12-03T20:41:34.870Z,0.40
2022-12-03T20:45:36.075Z,0.80
2022-12-03T20:49:38.641Z,1.00
2022-12-03T20:53:41.429Z,1.40
2022-12-03T20:57:42.532Z,1.30
2022-12-03T21:01:44.419Z,0.70
2022-12-03T21:05:45.485Z,1.10
2022-12-03T21:09:46.724Z,1.20
2022-12-03T21:13:48.002Z,1.20
2022-12-03T21:17:49.619Z,0.80
2022-12-03T21:21:50.814Z,1.30
2022-12-03T21:25:51.779Z,0.90
2022-12-03T21:29:53.227Z,0.90
2022-12-03T21:33:55.780Z,0.70
2022-12-03T21:37:56.921Z,1.20
2022-12-03T21:42:19.223Z,0.70
2022-12-03T21:47:08.250Z,1.20
2022-12-03T21:50:10.809Z,0.70
2022-12-03T21:54:11.778Z,1.40
2022-12-03T21:58:12.931Z,1.10
2022-12-03T22:02:14.248Z,0.90
2022-12-03T22:06:16.017Z,1.10
2022-12-03T22:10:17.422Z,1.20
2022-12-03T22:14:20.085Z,1.00
2022-12-03T22:18:21.098Z,2.10
2022-12-03T22:22:22.081Z,1.10
2022-12-03T22:26:23.160Z,1.30
2022-12-03T22:30:24.169Z,0.70
2022-12-03T22:34:25.252Z,1.20
2022-12-03T22:38:28.319Z,0.90
2022-12-03T22:42:29.353Z,0.50
2022-12-03T22:46:33.591Z,0.80
2022-12-03T22:50:43.887Z,0.80
2022-12-03T22:54:45.390Z,0.80
2022-12-03T22:58:46.440Z,0.80
2022-12-03T23:02:47.664Z,0.90
2022-12-03T23:06:48.934Z,0.80
2022-12-03T23:10:52.186Z,1.00
2022-12-03T23:14:54.518Z,1.30
2022-12-03T23:18:58.507Z,0.70
2022-12-03T23:22:59.561Z,0.50
2022-12-03T23:27:00.867Z,0.60
2022-12-03T23:31:03.347Z,0.90
2022-12-03T23:35:05.609Z,0.40
2022-12-03T23:39:06.786Z,1.00
2022-12-03T23:43:07.823Z,0.60
2022-12-03T23:47:11.665Z,0.10
2022-12-03T23:51:16.005Z,-0.10
2022-12-03T23:55:17.316Z,0.60
2022-12-03T23:59:18.555Z,0.80
